Time;durP1;ratioP1;P1;durP2;ratioP2;P2;SDS_P1;SDS_P2;PMS_P1;PMS_P2;Temp;Humidity;BMP_temperature;BMP_pressure;BME280_temperature;BME280_humidity;BME280_pressure;Samples;Min_cycle;Max_cycle;Signal;HPM_P1;HPM_P2
2021/11/12 00:13:34;;;;;;;495.60;31.58;;;;;;;-0.28;100.00;60966.06;5074952;28;20514;-77
2021/11/12 00:16:03;;;;;;;642.70;38.58;;;;;;;-0.27;100.00;60966.63;5075555;28;20098;-77
2021/11/12 00:18:32;;;;;;;639.05;41.67;;;;;;;-0.27;100.00;60967.00;5079252;28;20130;-77
2021/11/12 00:21:02;;;;;;;670.13;52.97;;;;;;;-0.27;100.00;60966.84;5075610;28;20455;-77
2021/11/12 00:23:31;;;;;;;742.47;42.83;;;;;;;-0.27;100.00;60967.00;5072736;28;20079;-77
2021/11/12 00:26:00;;;;;;;595.30;34.60;;;;;;;-0.26;100.00;60966.94;5069291;28;20466;-76
2021/11/12 00:28:31;;;;;;;668.90;39.35;;;;;;;-0.27;100.00;60966.69;5070144;28;20048;-77
2021/11/12 00:39:00;;;;;;;415.63;28.45;;;;;;;-0.29;100.00;60963.56;5071622;28;20044;-76
2021/11/12 00:41:42;;;;;;;606.08;43.47;;;;;;;-0.30;100.00;60962.13;5090626;28;20040;-77
2021/11/12 00:46:49;;;;;;;549.38;36.25;;;;;;;-0.34;100.00;60958.53;5092902;28;20048;-77
2021/11/12 00:49:21;;;;;;;584.03;36.33;;;;;;;-0.36;100.00;60956.09;5093188;28;20509;-77
2021/11/12 00:51:54;;;;;;;396.75;26.55;;;;;;;-0.38;100.00;60954.34;5073017;28;20094;-76
2021/11/12 00:54:21;;;;;;;315.40;24.45;;;;;;;-0.39;100.00;60953.56;5073676;28;20056;-77
2021/11/12 00:56:50;;;;;;;729.38;39.42;;;;;;;-0.40;100.00;60952.59;5058134;28;20127;-77
2021/11/12 00:59:18;;;;;;;255.60;22.90;;;;;;;-0.40;100.00;60952.81;5074477;28;20058;-76
2021/11/12 01:01:46;;;;;;;435.30;29.83;;;;;;;-0.40;100.00;60952.75;5074779;28;20052;-76
2021/11/12 01:04:17;;;;;;;335.25;25.65;;;;;;;-0.40;100.00;60952.91;5068609;28;20040;-77
2021/11/12 01:06:46;;;;;;;566.30;35.00;;;;;;;-0.41;100.00;60951.97;5078053;28;20104;-77
2021/11/12 01:09:16;;;;;;;321.40;22.45;;;;;;;-0.41;100.00;60951.97;5071214;28;20084;-77
2021/11/12 01:11:46;;;;;;;623.50;32.00;;;;;;;-0.41;100.00;60951.56;5072931;28;20079;-77
2021/11/12 01:14:18;;;;;;;675.78;43.20;;;;;;;-0.42;100.00;60950.88;5082788;28;20517;-76
2021/11/12 01:16:45;;;;;;;568.25;34.05;;;;;;;-0.42;100.00;60951.28;5093038;28;20051;-76
2021/11/12 01:19:13;;;;;;;556.42;29.33;;;;;;;-0.41;100.00;60951.84;5085853;28;20131;-77
2021/11/12 01:21:42;;;;;;;517.42;32.70;;;;;;;-0.41;100.00;60952.13;5085372;28;20068;-75
2021/11/12 01:24:09;;;;;;;347.50;24.08;;;;;;;-0.39;100.00;60953.88;5092254;28;20081;-77
2021/11/12 01:26:37;;;;;;;338.38;24.15;;;;;;;-0.38;100.00;60955.09;5092280;28;20102;-77
2021/11/12 01:29:05;;;;;;;177.68;16.73;;;;;;;-0.36;100.00;60957.53;5075940;28;20123;-76
2021/11/12 01:31:33;;;;;;;154.85;15.13;;;;;;;-0.33;100.00;60960.22;5090589;28;20106;-76
2021/11/12 01:34:09;;;;;;;314.45;22.52;;;;;;;-0.30;100.00;60963.47;5054925;28;20059;-76
2021/11/12 01:36:41;;;;;;;142.65;13.77;;;;;;;-0.28;100.00;60965.75;5090849;28;20127;-75
2021/11/12 01:39:13;;;;;;;69.90;11.82;;;;;;;-0.26;100.00;60967.75;5098319;28;20052;-75
2021/11/12 01:41:46;;;;;;;40.95;9.70;;;;;;;-0.24;100.00;60969.22;5075792;28;20123;-76
2021/11/12 01:44:14;;;;;;;46.55;11.45;;;;;;;-0.23;100.00;60970.28;5058492;28;20139;-77
2021/11/12 01:49:21;;;;;;;263.30;19.17;;;;;;;-0.22;100.00;60971.19;5060650;28;20102;-77
2021/11/12 01:59:49;;;;;;;190.95;15.40;;;;;;;-0.20;100.00;60973.13;5073051;28;20076;-76
2021/11/12 02:02:16;;;;;;;256.95;21.98;;;;;;;-0.20;100.00;60972.72;5072390;28;20049;-77
2021/11/12 02:04:44;;;;;;;222.30;17.92;;;;;;;-0.21;100.00;60972.41;5089484;28;20060;-76
2021/11/12 02:07:12;;;;;;;261.73;19.45;;;;;;;-0.21;100.00;60972.03;5089448;28;20470;-76
2021/11/12 02:09:40;;;;;;;324.30;20.25;;;;;;;-0.22;100.00;60971.22;5041480;28;20056;-77
2021/11/12 02:14:45;;;;;;;310.98;20.23;;;;;;;-0.25;100.00;60968.44;5091242;28;20048;-77
2021/11/12 02:17:16;;;;;;;457.88;28.23;;;;;;;-0.27;100.00;60966.84;5073038;28;20470;-77
2021/11/12 02:19:57;;;;;;;802.65;38.65;;;;;;;-0.29;100.00;60964.41;5061963;28;20087;-77
2021/11/12 02:22:29;;;;;;;627.17;33.03;;;;;;;-0.31;100.00;60962.50;5094318;28;20123;-77
2021/11/12 02:25:06;;;;;;;457.67;25.88;;;;;;;-0.32;100.00;60961.16;5065703;28;20091;-76
2021/11/12 02:27:41;;;;;;;398.67;28.27;;;;;;;-0.33;100.00;60960.22;5091142;28;20090;-77
2021/11/12 02:30:10;;;;;;;442.95;29.63;;;;;;;-0.34;100.00;60959.69;5086370;28;20112;-77
2021/11/12 02:32:37;;;;;;;548.15;34.85;;;;;;;-0.34;100.00;60959.00;5082837;28;20079;-77
2021/11/12 02:35:05;;;;;;;595.70;34.70;;;;;;;-0.35;100.00;60958.59;5087141;28;20545;-76
2021/11/12 02:37:34;;;;;;;737.67;42.53;;;;;;;-0.36;100.00;60957.16;5071900;28;20519;-76
2021/11/12 02:40:02;;;;;;;907.80;52.38;;;;;;;-0.39;100.00;60954.47;5089055;28;20047;-77
2021/11/12 02:42:30;;;;;;;848.95;45.80;;;;;;;-0.42;100.00;60951.34;5074891;28;20229;-77
2021/11/12 02:44:57;;;;;;;683.20;38.50;;;;;;;-0.45;100.00;60948.22;5067855;28;20076;-76
2021/11/12 02:47:24;;;;;;;567.97;38.13;;;;;;;-0.47;100.00;60945.41;5070925;28;20493;-76
2021/11/12 02:49:55;;;;;;;745.50;43.55;;;;;;;-0.50;100.00;60943.16;5090788;28;20044;-77
2021/11/12 02:52:23;;;;;;;788.83;40.58;;;;;;;-0.52;100.00;60940.72;5083618;28;20542;-77
2021/11/12 02:54:52;;;;;;;372.58;21.05;;;;;;;-0.54;100.00;60939.00;5078949;28;20620;-77
2021/11/12 02:57:21;;;;;;;380.98;29.10;;;;;;;-0.55;100.00;60937.78;5064839;28;20135;-76
2021/11/12 02:59:48;;;;;;;395.08;27.00;;;;;;;-0.56;100.00;60936.97;5053476;28;20507;-77
2021/11/12 03:02:16;;;;;;;405.73;26.88;;;;;;;-0.57;100.00;60936.44;5091465;28;20124;-77
2021/11/12 03:04:44;;;;;;;239.20;17.23;;;;;;;-0.57;100.00;60935.72;5073451;28;20081;-76
2021/11/12 03:07:11;;;;;;;483.77;27.17;;;;;;;-0.57;100.00;60935.72;5073295;28;20082;-77
2021/11/12 03:09:39;;;;;;;360.38;16.92;;;;;;;-0.57;100.00;60936.19;5056886;28;20486;-77
2021/11/12 03:12:07;;;;;;;661.13;33.03;;;;;;;-0.58;100.00;60935.50;5069887;28;20045;-77
2021/11/12 03:14:35;;;;;;;524.15;28.73;;;;;;;-0.58;100.00;60934.81;5089576;28;20076;-77
2021/11/12 03:17:04;;;;;;;247.98;20.98;;;;;;;-0.58;100.00;60934.66;5070689;28;20048;-77
2021/11/12 03:19:33;;;;;;;638.45;34.05;;;;;;;-0.59;100.00;60934.44;5093075;28;20182;-77
2021/11/12 03:22:06;;;;;;;677.47;32.50;;;;;;;-0.60;100.00;60933.50;5091208;28;20458;-76
2021/11/12 03:24:36;;;;;;;871.90;42.60;;;;;;;-0.62;100.00;60930.75;5057860;28;20517;-77
2021/11/12 03:27:14;;;;;;;867.20;47.47;;;;;;;-0.64;100.00;60928.91;5072767;28;20473;-76
2021/11/12 03:59:55;;;;;;;;;;;;;;;-0.66;100.00;60926.81;5059815;28;20471;-76
2021/11/12 04:02:54;;;;;;;83.22;9.85;;;;;;;-0.66;100.00;60926.97;5086123;28;19963;-75
2021/11/12 05:57:28;;;;;;;107.47;14.77;;;0.50;99.90;;;-0.78;100.00;60912.97;5092284;28;20120;-76
2021/11/12 05:59:55;;;;;;;361.17;22.27;;;0.50;99.90;;;-0.80;100.00;60911.63;5059142;28;20451;-75
2021/11/12 06:02:23;;;;;;;137.85;15.38;;;0.50;99.90;;;-0.81;100.00;60910.44;5103603;28;20123;-75
2021/11/12 06:04:51;;;;;;;479.48;27.38;;;0.50;99.90;;;-0.82;100.00;60909.19;5089772;28;21143;-75
2021/11/12 06:07:19;;;;;;;108.45;12.32;;;0.40;99.90;;;-0.82;100.00;60908.47;5073084;28;20055;-75
2021/11/12 06:09:46;;;;;;;231.85;18.70;;;0.40;99.90;;;-0.82;100.00;60908.78;5071533;28;20113;-75
2021/11/12 06:12:13;;;;;;;477.95;24.33;;;0.50;99.90;;;-0.82;100.00;60909.34;5084502;28;20045;-77
2021/11/12 06:14:41;;;;;;;635.58;33.42;;;0.50;99.90;;;-0.82;100.00;60909.47;5060087;28;20048;-75
2021/11/12 06:17:09;;;;;;;705.20;38.03;;;0.50;99.90;;;-0.82;100.00;60909.78;5073801;28;20055;-78
2021/11/12 06:19:36;;;;;;;227.75;18.27;;;0.40;99.90;;;-0.81;100.00;60910.06;5080813;28;20071;-77
2021/11/12 06:22:04;;;;;;;401.63;25.88;;;0.50;99.90;;;-0.81;100.00;60910.47;5078306;28;20447;-75
2021/11/12 06:24:32;;;;;;;540.13;28.25;;;0.50;99.90;;;-0.81;100.00;60911.31;5095691;28;20139;-76
2021/11/12 06:26:59;;;;;;;521.58;30.73;;;0.50;99.90;;;-0.81;100.00;60910.63;5075319;28;20470;-77
2021/11/12 06:29:26;;;;;;;221.52;19.45;;;0.50;99.90;;;-0.81;100.00;60911.06;5087085;28;20538;-77
2021/11/12 06:31:54;;;;;;;239.73;16.88;;;0.50;99.90;;;-0.79;100.00;60912.84;5091618;28;20044;-77
2021/11/12 06:34:22;;;;;;;508.17;23.85;;;0.60;99.90;;;-0.78;100.00;60914.06;5075476;28;20047;-76
2021/11/12 06:36:50;;;;;;;472.73;33.88;;;0.60;99.90;;;-0.78;100.00;60914.13;5073154;28;20410;-77
2021/11/12 06:39:19;;;;;;;277.67;17.58;;;0.70;99.90;;;-0.78;100.00;60914.25;5084691;28;20165;-77
2021/11/12 06:52:27;;;;;;;365.20;18.90;;;0.70;99.90;;;-0.72;100.00;60920.53;5079609;28;20174;-77
2021/11/12 06:54:55;;;;;;;122.03;12.23;;;0.70;99.90;;;-0.71;100.00;60921.88;5090161;28;20068;-77
2021/11/12 06:57:22;;;;;;;122.78;11.70;;;0.70;99.90;;;-0.69;100.00;60923.19;5088685;28;20151;-77
2021/11/12 06:59:50;;;;;;;376.65;24.30;;;0.70;99.90;;;-0.68;100.00;60924.00;5071580;28;20143;-77
2021/11/12 07:02:24;;;;;;;126.80;12.55;;;0.70;99.90;;;-0.67;100.00;60925.09;5067121;28;20089;-77
2021/11/12 07:04:52;;;;;;;160.85;11.55;;;0.80;99.90;;;-0.66;100.00;60926.31;5073398;28;20044;-77
2021/11/12 07:07:20;;;;;;;153.20;16.58;;;0.70;99.90;;;-0.66;100.00;60927.13;5090331;28;20072;-76
2021/11/12 07:09:47;;;;;;;69.95;9.48;;;0.60;99.90;;;-0.64;100.00;60928.63;5068065;28;20106;-76
2021/11/12 07:12:15;;;;;;;214.23;16.20;;;0.60;99.90;;;-0.65;100.00;60927.50;5060551;28;20577;-77
2021/11/12 07:14:46;;;;;;;284.42;20.30;;;0.60;99.90;;;-0.68;100.00;60924.13;5080401;28;20117;-77
2021/11/12 07:17:14;;;;;;;303.15;20.52;;;0.40;99.90;;;-0.70;100.00;60922.00;5104523;28;20048;-75
2021/11/12 07:19:41;;;;;;;231.45;15.70;;;0.30;99.90;;;-0.72;100.00;60920.09;5083829;28;20436;-76
2021/11/12 07:22:09;;;;;;;205.85;16.92;;;0.50;99.90;;;-0.74;100.00;60918.69;5076376;28;20125;-76
2021/11/12 07:24:37;;;;;;;345.88;23.77;;;0.50;99.90;;;-0.77;100.00;60915.88;5088294;28;20126;-77
2021/11/12 07:27:05;;;;;;;124.97;11.82;;;0.50;99.90;;;-0.80;100.00;60912.91;5073724;28;20067;-77
2021/11/12 07:29:35;;;;;;;137.88;14.07;;;0.50;99.90;;;-0.81;100.00;60911.47;5065971;28;20068;-77
2021/11/12 07:32:06;;;;;;;47.22;11.18;;;0.40;99.90;;;-0.82;100.00;60911.25;5063706;28;20036;-77
2021/11/12 07:34:34;;;;;;;275.50;18.70;;;0.50;99.90;;;-0.83;100.00;60910.44;5092485;28;20453;-77
2021/11/12 07:37:19;;;;;;;179.82;15.30;;;0.50;99.90;;;-0.83;100.00;60909.78;5091264;28;20044;-77
2021/11/12 07:39:51;;;;;;;271.83;21.48;;;0.60;99.90;;;-0.83;100.00;60909.94;5090690;28;20075;-77
2021/11/12 07:47:16;;;;;;;52.05;10.68;;;0.40;99.90;;;-0.83;100.00;60910.03;5075660;28;20076;-77
2021/11/12 07:49:54;;;;;;;53.72;10.13;;;0.40;99.90;;;-0.84;100.00;60908.81;5093402;28;20075;-77
2021/11/12 07:52:25;;;;;;;172.10;11.55;;;0.30;99.90;;;-0.83;100.00;60909.78;5092787;28;20482;-77
2021/11/12 07:54:53;;;;;;;26.77;8.73;;;0.40;99.90;;;-0.81;100.00;60911.75;5077701;28;20086;-77
2021/11/12 07:57:21;;;;;;;86.82;12.18;;;0.50;99.90;;;-0.79;100.00;60913.59;5087230;28;20048;-77
2021/11/12 07:59:50;;;;;;;74.82;12.05;;;0.70;99.90;;;-0.77;100.00;60916.13;5076377;28;20036;-76
2021/11/12 08:02:18;;;;;;;82.90;13.00;;;0.80;99.90;;;-0.74;100.00;60918.78;5087693;28;20052;-77
2021/11/12 08:04:47;;;;;;;261.40;18.55;;;0.90;99.90;;;-0.70;100.00;60922.44;5072448;28;20513;-77
2021/11/12 08:07:15;;;;;;;332.95;17.02;;;1.00;99.90;;;-0.67;100.00;60925.19;5072695;28;20135;-77
2021/11/12 08:12:19;;;;;;;156.63;16.48;;;1.00;99.90;;;-0.64;100.00;60929.19;5085378;28;20075;-76
2021/11/12 08:22:20;;;;;;;193.75;18.45;;;1.40;99.90;;;-0.54;100.00;60938.69;5076557;28;20084;-77
2021/11/12 08:25:11;;;;;;;391.55;28.83;;;1.30;99.90;;;-0.57;100.00;60935.31;5084169;28;20066;-77
2021/11/12 08:41:12;;;;;;;389.92;37.13;;;1.00;99.90;;;-0.64;100.00;60928.88;5093524;28;20555;-76
2021/11/12 08:43:14;;;;;;;514.38;43.60;;;0.90;99.90;;;-0.70;100.00;60922.25;5082084;28;20064;-76
2021/11/12 08:45:45;;;;;;;410.13;26.48;;;0.70;99.90;;;-0.75;100.00;60917.59;5078126;28;20477;-77
2021/11/12 08:48:19;;;;;;;492.67;51.90;;;0.70;99.90;;;-0.79;100.00;60913.28;5079279;28;20396;-77
2021/11/12 08:50:46;;;;;;;186.18;21.58;;;0.60;99.90;;;-0.81;100.00;60911.97;5064182;28;20063;-76
2021/11/12 08:53:15;;;;;;;97.32;11.52;;;0.60;99.90;;;-0.80;100.00;60913.06;5086189;28;20483;-76
2021/11/12 08:55:44;;;;;;;92.10;13.23;;;0.80;99.90;;;-0.76;100.00;60916.97;5062959;28;20532;-77
2021/11/12 08:58:12;;;;;;;177.70;15.88;;;1.00;99.90;;;-0.74;100.00;60919.38;5080698;28;20460;-76
2021/11/12 09:00:42;;;;;;;170.00;15.25;;;1.10;99.90;;;-0.71;100.00;60922.38;5094510;28;20436;-75
2021/11/12 09:03:11;;;;;;;37.72;9.40;;;1.20;99.90;;;-0.67;100.00;60926.28;5076945;28;20128;-76
2021/11/12 09:05:38;;;;;;;56.75;11.95;;;1.30;99.90;;;-0.61;100.00;60933.22;5075182;28;20048;-77
2021/11/12 09:08:05;;;;;;;50.63;10.27;;;1.40;99.90;;;-0.55;100.00;60939.00;5095581;28;20086;-76
2021/11/12 09:10:33;;;;;;;62.92;10.48;;;1.70;99.90;;;-0.49;100.00;60945.47;5071536;28;20098;-77
2021/11/12 09:13:12;;;;;;;115.90;13.60;;;1.90;99.90;;;-0.43;100.00;60951.69;5056877;28;20119;-77
2021/11/12 09:15:40;;;;;;;207.23;17.17;;;2.00;99.90;;;-0.38;100.00;60956.88;5062143;28;20036;-76
2021/11/12 09:18:07;;;;;;;91.03;12.90;;;2.00;99.90;;;-0.35;100.00;60960.50;5087802;28;20414;-77
2021/11/12 09:20:34;;;;;;;22.75;11.05;;;1.80;99.90;;;-0.30;100.00;60965.38;5088286;28;20558;-77
2021/11/12 09:23:01;;;;;;;62.83;11.30;;;1.70;99.90;;;-0.26;100.00;60969.38;5094134;28;20527;-77
2021/11/12 09:25:28;;;;;;;107.88;14.27;;;1.80;99.90;;;-0.20;100.00;60974.91;5090591;28;20093;-77
2021/11/12 09:27:55;;;;;;;88.97;11.15;;;2.00;99.90;;;-0.17;100.00;60978.44;5083830;28;20462;-77
2021/11/12 09:30:25;;;;;;;30.05;11.07;;;2.10;99.90;;;-0.12;100.00;60983.84;5082992;28;20083;-77
2021/11/12 09:32:54;;;;;;;36.47;9.82;;;2.10;99.90;;;-0.05;100.00;60990.66;5070748;28;20105;-76
2021/11/12 09:35:22;;;;;;;57.22;12.32;;;2.20;99.90;;;0.02;100.00;60997.22;5085965;28;20071;-77
2021/11/12 09:37:50;;;;;;;49.63;10.23;;;2.30;99.90;;;0.08;100.00;61003.69;5076203;28;20558;-77
2021/11/12 09:40:20;;;;;;;140.43;12.77;;;2.30;99.90;;;0.13;100.00;61009.16;5077124;28;20095;-77
2021/11/12 09:42:50;;;;;;;212.27;19.73;;;2.30;99.90;;;0.13;100.00;61009.41;5082225;28;20068;-77
2021/11/12 09:45:20;;;;;;;51.30;10.90;;;2.20;99.90;;;0.16;100.00;61011.97;5064229;28;20076;-77
2021/11/12 09:47:49;;;;;;;42.33;10.52;;;2.10;99.90;;;0.20;100.00;61016.25;5080558;28;20072;-77
2021/11/12 09:50:26;;;;;;;34.85;10.20;;;2.20;99.90;;;0.25;100.00;61020.91;5049031;28;20516;-77
2021/11/12 09:52:55;;;;;;;220.38;24.58;;;2.40;99.90;;;0.28;100.00;61024.44;5067031;28;20590;-76
2021/11/12 09:55:22;;;;;;;88.95;14.77;;;2.50;99.90;;;0.30;100.00;61025.91;5072441;28;20044;-77
2021/11/12 09:57:51;;;;;;;312.30;25.63;;;2.40;99.90;;;0.28;100.00;61023.75;5092338;28;20493;-76
2021/11/12 10:00:24;;;;;;;207.15;24.27;;;2.40;99.90;;;0.28;100.00;61023.13;5082098;28;20123;-77
2021/11/12 10:02:52;;;;;;;55.60;13.23;;;2.20;99.90;;;0.28;100.00;61023.78;5089067;28;20048;-76
2021/11/12 10:05:38;;;;;;;37.30;13.27;;;2.10;99.90;;;0.31;100.00;61026.84;5074826;28;20123;-77
2021/11/12 10:08:29;;;;;;;28.35;12.88;;;2.20;99.90;;;0.37;100.00;61032.41;5090396;28;20067;-77
2021/11/12 10:11:10;;;;;;;22.08;12.15;;;2.40;99.90;;;0.44;100.00;61039.38;5074003;28;20092;-76
2021/11/12 10:13:45;;;;;;;28.05;11.85;;;2.70;99.90;;;0.50;100.00;61046.13;5083245;28;20068;-76
2021/11/12 10:19:12;;;;;;;27.40;12.00;;;2.90;99.90;;;0.64;100.00;61060.25;5070829;28;20048;-77
2021/11/12 10:21:41;;;;;;;27.87;12.90;;;3.00;99.90;;;0.73;100.00;61069.03;5086309;28;20067;-76
2021/11/12 10:24:22;;;;;;;26.60;11.73;;;3.20;99.90;;;0.79;100.00;61074.47;5078490;28;20048;-76
2021/11/12 10:26:57;;;;;;;34.97;13.68;;;3.10;99.90;;;0.83;100.00;61079.31;5084717;28;20168;-76
2021/11/12 10:29:31;;;;;;;50.97;17.92;;;3.20;99.90;;;0.87;100.00;61082.84;5090456;28;20130;-77
2021/11/12 10:32:03;;;;;;;31.65;14.13;;;3.00;99.90;;;0.92;100.00;61087.81;5066230;28;20040;-77
2021/11/12 10:34:38;;;;;;;22.10;11.15;;;2.90;99.90;;;0.97;100.00;61093.47;5069774;28;20143;-76
2021/11/12 10:37:11;;;;;;;55.90;11.98;;;3.00;99.90;;;0.99;100.00;61094.97;5073548;28;20045;-76
2021/11/12 10:39:42;;;;;;;35.75;11.48;;;2.70;99.90;;;1.03;100.00;61100.19;5083117;28;20123;-76
2021/11/12 10:42:15;;;;;;;50.53;12.60;;;2.80;99.90;;;1.07;100.00;61104.34;5077813;28;20054;-76
2021/11/12 10:44:48;;;;;;;34.08;11.93;;;2.90;99.90;;;1.11;100.00;61108.53;5095131;28;20123;-76
2021/11/12 10:47:18;;;;;;;35.15;14.65;;;3.00;99.90;;;1.18;100.00;61114.72;5079395;28;20105;-77
2021/11/12 10:50:09;;;;;;;29.08;12.07;;;3.10;99.90;;;1.24;100.00;61120.59;5090206;28;20080;-77
2021/11/12 10:52:37;;;;;;;32.83;10.98;;;3.20;99.90;;;1.28;100.00;61125.16;5068616;28;20056;-76
2021/11/12 10:55:12;;;;;;;37.35;14.02;;;3.30;99.90;;;1.33;100.00;61130.31;5074506;28;20055;-77
2021/11/12 10:57:49;;;;;;;22.02;12.02;;;3.30;99.90;;;1.39;100.00;61136.81;5067955;28;20044;-76
2021/11/12 11:00:21;;;;;;;47.78;14.05;;;3.40;99.90;;;1.42;100.00;61139.75;5086499;28;20055;-76
2021/11/12 11:02:57;;;;;;;28.65;12.38;;;3.40;99.90;;;1.48;100.00;61146.16;5086523;28;20076;-77
2021/11/12 11:05:30;;;;;;;26.52;10.98;;;3.50;99.90;;;1.51;100.00;61149.53;5066931;28;20043;-77
2021/11/12 11:08:04;;;;;;;32.65;12.07;;;3.50;99.90;;;1.54;100.00;61152.47;5069230;28;20087;-77
2021/11/12 11:10:41;;;;;;;65.90;13.15;;;3.30;99.90;;;1.55;100.00;61152.28;5069673;28;20048;-76
2021/11/12 11:13:17;;;;;;;23.92;11.55;;;3.40;99.90;;;1.59;100.00;61156.19;5061846;28;20080;-76
2021/11/12 11:15:50;;;;;;;29.83;11.50;;;3.50;99.90;;;1.64;100.00;61161.59;5072098;28;20044;-76
2021/11/12 11:18:24;;;;;;;;;;;3.70;99.90;;;1.68;100.00;61166.59;5073757;28;20044;-76
2021/11/12 11:21:10;;;;;;;22.08;10.70;;;3.90;99.90;;;1.73;100.00;61171.09;5086823;28;19920;-76
2021/11/12 11:23:45;;;;;;;40.83;11.32;;;3.90;99.90;;;1.74;100.00;61172.84;5076933;28;20120;-76
2021/11/12 11:26:50;;;;;;;136.40;15.25;;;4.00;99.90;;;1.76;100.00;61174.19;5077079;28;20047;-76
2021/11/12 11:29:23;;;;;;;109.95;15.70;;;3.90;99.90;;;1.75;100.00;61173.25;4990213;28;20046;-76
2021/11/12 11:31:55;;;;;;;59.63;11.13;;;3.80;99.90;;;1.72;100.00;61170.97;5079743;28;20048;-77
2021/11/12 11:34:24;;;;;;;69.00;12.23;;;3.60;99.90;;;1.71;100.00;61169.63;5059344;28;20104;-76
2021/11/12 11:36:59;;;;;;;52.75;13.82;;;3.50;99.90;;;1.73;100.00;61171.41;5086707;28;20051;-76
2021/11/12 11:39:27;;;;;;;33.70;12.15;;;3.50;99.90;;;1.72;100.00;61170.81;5057974;28;20143;-77
2021/11/12 11:41:55;;;;;;;38.95;11.98;;;3.50;99.90;;;1.72;100.00;61169.88;5057162;28;20547;-76
2021/11/12 11:44:21;;;;;;;38.42;13.02;;;3.50;99.90;;;1.72;100.00;61170.13;5069765;28;20134;-77
2021/11/12 11:46:53;;;;;;;23.15;10.23;;;3.50;99.90;;;1.75;100.00;61173.22;5078044;28;20123;-76
2021/11/12 11:49:24;;;;;;;20.33;11.02;;;3.60;99.90;;;1.81;100.00;61179.56;5095506;28;20524;-77
2021/11/12 11:52:00;;;;;;;33.75;11.95;;;3.80;99.90;;;1.86;100.00;61183.97;5080498;28;20135;-77
2021/11/12 11:54:35;;;;;;;28.27;11.82;;;4.00;99.90;;;1.92;100.00;61190.06;5061604;28;20047;-75
2021/11/12 11:57:19;;;;;;;64.72;14.95;;;4.10;99.90;;;1.95;100.00;61193.09;5062288;28;20044;-76
2021/11/12 11:59:47;;;;;;;84.78;15.75;;;4.10;99.90;;;1.95;100.00;61193.00;5066846;28;20581;-76
2021/11/12 12:02:21;;;;;;;47.17;12.70;;;4.10;99.90;;;1.94;100.00;61192.47;5045939;28;20094;-76
2021/11/12 12:05:00;;;;;;;25.05;12.23;;;4.10;99.90;;;1.95;100.00;61194.13;5089245;28;20097;-77
2021/11/12 12:07:50;;;;;;;36.67;12.80;;;4.00;99.90;;;1.99;100.00;61197.78;5091897;28;20044;-77
2021/11/12 12:10:23;;;;;;;63.08;15.20;;;3.90;99.90;;;2.01;100.00;61199.94;5071331;28;20083;-76
2021/11/12 12:12:54;;;;;;;22.67;11.07;;;3.80;99.90;;;2.00;100.00;61198.94;5088564;28;20044;-76
2021/11/12 12:15:21;;;;;;;31.63;13.27;;;3.80;99.90;;;1.99;100.00;61198.16;5055581;28;20076;-77
2021/11/12 12:18:17;;;;;;;21.95;13.35;;;3.70;99.90;;;2.02;100.00;61200.44;5080116;28;20248;-76
2021/11/12 12:42:30;;;;;;;20.30;11.25;;;3.70;99.90;;;2.13;100.00;61212.06;5087646;28;20040;-77
2021/11/12 13:25:46;;;;;;;29.55;15.52;;;3.40;99.90;;;2.15;100.00;61212.72;5085613;28;20458;-76
2021/11/12 13:28:26;;;;;;;31.23;15.40;;;3.50;99.90;;;2.13;100.00;61211.00;5082282;28;20044;-76
2021/11/12 13:30:58;;;;;;;29.65;15.77;;;3.50;99.90;;;2.10;100.00;61208.28;5066241;28;20562;-76
2021/11/12 13:33:46;;;;;;;26.80;15.13;;;3.40;99.90;;;2.09;100.00;61207.34;5042439;28;20083;-75
2021/11/12 13:36:20;;;;;;;24.48;14.32;;;3.50;99.90;;;2.08;100.00;61206.84;5087774;28;20048;-75
2021/11/12 13:38:49;;;;;;;31.83;15.18;;;3.60;99.90;;;2.07;100.00;61204.94;5084309;28;20074;-75
2021/11/12 13:41:20;;;;;;;23.60;14.27;;;3.70;99.90;;;2.06;100.00;61204.13;5086938;28;20044;-74
2021/11/12 13:43:49;;;;;;;25.92;14.02;;;3.80;99.90;;;2.08;100.00;61206.84;5089291;28;20127;-74
2021/11/12 13:46:17;;;;;;;41.55;14.98;;;3.90;99.90;;;2.06;100.00;61204.13;5068396;28;20087;-75
2021/11/12 13:48:53;;;;;;;32.22;16.05;;;3.90;99.90;;;2.04;100.00;61202.81;5089041;28;20060;-74
2021/11/12 13:51:33;;;;;;;35.08;14.90;;;3.70;99.90;;;2.05;100.00;61203.09;5087221;28;20121;-76
2021/11/12 13:54:05;;;;;;;25.35;14.07;;;3.60;99.90;;;2.03;100.00;61201.19;5072307;28;20089;-75
2021/11/12 13:56:36;;;;;;;25.83;14.45;;;3.50;99.90;;;2.01;100.00;61199.03;5071004;28;20119;-75
2021/11/12 13:59:13;;;;;;;37.83;15.98;;;3.50;99.90;;;1.98;100.00;61196.75;5093724;28;20123;-75
2021/11/12 14:01:41;;;;;;;23.05;13.43;;;3.40;99.90;;;2.00;100.00;61198.25;5073169;28;20075;-75
2021/11/12 14:04:40;;;;;;;25.20;14.02;;;3.50;99.90;;;1.99;100.00;61198.00;5066867;28;20046;-77
2021/11/12 14:07:34;;;;;;;25.50;13.65;;;3.60;99.90;;;1.98;100.00;61196.50;5031440;28;20470;-75
2021/11/12 14:10:05;;;;;;;21.65;13.50;;;3.40;99.90;;;1.96;100.00;61194.34;5052251;28;20395;-75
2021/11/12 14:12:33;;;;;;;29.40;15.18;;;3.30;99.90;;;1.96;100.00;61194.22;5061300;28;20040;-75
2021/11/12 14:21:34;;;;;;;34.33;14.98;;;3.20;99.90;;;1.89;100.00;61187.97;5062506;28;20151;-75
2021/11/12 14:54:47;;;;;;;47.85;20.02;;;2.60;99.90;;;1.64;100.00;61163.22;5051438;28;20525;-74
2021/11/12 15:00:05;;;;;;;51.58;20.38;;;2.60;99.90;;;1.56;100.00;61155.00;5083501;28;20083;-75
2021/11/12 15:02:35;;;;;;;35.00;16.65;;;2.70;99.90;;;1.54;100.00;61152.78;5083603;28;20231;-75
2021/11/12 15:05:05;;;;;;;29.83;15.25;;;2.60;99.90;;;1.54;100.00;61152.78;5069135;28;20452;-74
2021/11/12 15:07:53;;;;;;;32.35;16.58;;;2.70;99.90;;;1.54;100.00;61152.78;5073058;28;20052;-75
2021/11/12 15:10:27;;;;;;;39.28;18.77;;;2.80;99.90;;;1.53;100.00;61151.72;5085773;28;20119;-74
2021/11/12 15:12:55;;;;;;;65.90;20.80;;;2.70;99.90;;;1.51;100.00;61149.00;5085657;28;20048;-74
2021/11/12 15:15:23;;;;;;;33.00;15.65;;;2.70;99.90;;;1.51;100.00;61149.00;5082679;28;20080;-74
2021/11/12 15:17:52;;;;;;;34.50;17.73;;;2.70;99.90;;;1.49;100.00;61147.22;5069571;28;20086;-74
2021/11/12 15:20:20;;;;;;;75.70;23.52;;;2.70;99.90;;;1.48;100.00;61145.31;5072398;28;20040;-74
2021/11/12 15:30:26;;;;;;;115.72;24.67;;;2.60;99.90;;;1.38;100.00;61135.59;5074629;28;20151;-75
2021/11/12 15:33:00;;;;;;;37.08;19.75;;;2.60;99.90;;;1.36;100.00;61133.88;5084316;28;20055;-75
2021/11/12 15:35:30;;;;;;;44.63;20.52;;;2.60;99.90;;;1.34;100.00;61131.31;5086671;28;20091;-77
2021/11/12 15:38:17;;;;;;;41.72;22.15;;;2.50;99.90;;;1.31;100.00;61128.56;5066930;28;20458;-76
2021/11/12 15:40:49;;;;;;;28.90;15.75;;;2.50;99.90;;;1.31;100.00;61128.44;5066512;28;20116;-77
2021/11/12 15:46:15;;;;;;;137.20;35.22;;;2.60;99.90;;;1.29;100.00;61126.88;5076905;28;20479;-77
2021/11/12 15:48:43;;;;;;;54.80;20.58;;;2.50;99.90;;;1.29;100.00;61126.88;5080937;28;20115;-77
2021/11/12 15:54:26;;;;;;;228.43;26.35;;;2.60;99.90;;;1.27;100.00;61124.69;5005625;28;20077;-76
2021/11/12 16:18:41;;;;;;;273.83;31.75;;;2.20;99.90;;;1.11;100.00;61106.94;5073842;28;20098;-77
2021/11/12 16:26:44;;;;;;;89.25;21.55;;;2.00;99.90;;;1.03;100.00;61099.38;5055258;28;20102;-77
2021/11/12 16:31:48;;;;;;;67.28;19.95;;;2.10;99.90;;;1.01;100.00;61096.69;5071707;28;20044;-77
2021/11/12 16:34:18;;;;;;;70.97;20.92;;;2.00;99.90;;;0.99;100.00;61095.31;5090643;28;20585;-77
2021/11/12 16:37:10;;;;;;;104.82;19.27;;;2.00;99.90;;;0.99;100.00;61094.81;5084303;28;20046;-76
2021/11/12 16:39:46;;;;;;;70.38;18.65;;;2.10;99.90;;;0.98;100.00;61094.44;5057228;28;20044;-77
2021/11/12 16:50:25;;;;;;;381.13;38.97;;;2.20;99.90;;;0.93;100.00;61089.72;5083676;28;20163;-76
2021/11/12 16:56:16;;;;;;;275.85;60.20;;;2.10;99.90;;;0.89;100.00;61084.41;5066412;28;20131;-76
2021/11/12 17:04:01;;;;;;;355.63;39.90;;;2.10;99.90;;;0.82;100.00;61077.50;5070238;28;20071;-76